sensor_id;sensor_type;location;lat;lon;timestamp;P1;durP1;ratioP1;P2;durP2;ratioP2
24277;SDS011;12394;42.692;23.314;2023-05-07T00:01:56;14.73;;;10.70;;
24277;SDS011;12394;42.692;23.314;2023-05-07T00:04:22;18.33;;;10.83;;
24277;SDS011;12394;42.692;23.314;2023-05-07T00:06:47;14.57;;;10.30;;
24277;SDS011;12394;42.692;23.314;2023-05-07T00:09:12;12.23;;;10.70;;
24277;SDS011;12394;42.692;23.314;2023-05-07T00:11:38;14.83;;;10.90;;
24277;SDS011;12394;42.692;23.314;2023-05-07T00:14:03;13.37;;;11.03;;
24277;SDS011;12394;42.692;23.314;2023-05-07T00:16:29;12.63;;;10.97;;
24277;SDS011;12394;42.692;23.314;2023-05-07T00:18:54;14.80;;;11.27;;
24277;SDS011;12394;42.692;23.314;2023-05-07T00:21:19;15.40;;;11.60;;
24277;SDS011;12394;42.692;23.314;2023-05-07T00:23:46;16.70;;;11.90;;
24277;SDS011;12394;42.692;23.314;2023-05-07T00:26:12;19.73;;;12.07;;
24277;SDS011;12394;42.692;23.314;2023-05-07T00:28:37;14.53;;;11.13;;
24277;SDS011;12394;42.692;23.314;2023-05-07T00:31:02;18.97;;;11.50;;
24277;SDS011;12394;42.692;23.314;2023-05-07T00:33:28;15.00;;;12.03;;
24277;SDS011;12394;42.692;23.314;2023-05-07T00:35:53;23.60;;;12.37;;
24277;SDS011;12394;42.692;23.314;2023-05-07T00:38:21;17.03;;;11.07;;
24277;SDS011;12394;42.692;23.314;2023-05-07T00:40:47;18.97;;;11.47;;
24277;SDS011;12394;42.692;23.314;2023-05-07T00:43:12;15.33;;;11.37;;
24277;SDS011;12394;42.692;23.314;2023-05-07T00:45:37;17.17;;;12.03;;
24277;SDS011;12394;42.692;23.314;2023-05-07T00:48:03;17.70;;;12.23;;
24277;SDS011;12394;42.692;23.314;2023-05-07T00:50:29;16.13;;;12.13;;
24277;SDS011;12394;42.692;23.314;2023-05-07T00:52:55;15.60;;;11.63;;
24277;SDS011;12394;42.692;23.314;2023-05-07T00:55:22;18.17;;;11.73;;
24277;SDS011;12394;42.692;23.314;2023-05-07T00:57:48;15.07;;;12.67;;
24277;SDS011;12394;42.692;23.314;2023-05-07T01:00:14;17.50;;;11.97;;
24277;SDS011;12394;42.692;23.314;2023-05-07T01:02:40;17.33;;;12.90;;
24277;SDS011;12394;42.692;23.314;2023-05-07T01:05:07;16.73;;;11.97;;
24277;SDS011;12394;42.692;23.314;2023-05-07T01:07:35;22.70;;;13.77;;
24277;SDS011;12394;42.692;23.314;2023-05-07T01:10:03;16.43;;;11.57;;
24277;SDS011;12394;42.692;23.314;2023-05-07T01:12:30;18.73;;;12.37;;
24277;SDS011;12394;42.692;23.314;2023-05-07T01:14:56;17.17;;;13.10;;
24277;SDS011;12394;42.692;23.314;2023-05-07T01:17:22;16.53;;;12.60;;
24277;SDS011;12394;42.692;23.314;2023-05-07T01:19:48;20.87;;;13.13;;
24277;SDS011;12394;42.692;23.314;2023-05-07T01:22:14;18.83;;;12.57;;
24277;SDS011;12394;42.692;23.314;2023-05-07T01:24:41;18.00;;;12.17;;
24277;SDS011;12394;42.692;23.314;2023-05-07T01:27:07;16.97;;;12.20;;
24277;SDS011;12394;42.692;23.314;2023-05-07T01:29:33;15.93;;;12.20;;
24277;SDS011;12394;42.692;23.314;2023-05-07T01:31:59;16.87;;;12.70;;
24277;SDS011;12394;42.692;23.314;2023-05-07T01:34:25;14.50;;;11.60;;
24277;SDS011;12394;42.692;23.314;2023-05-07T01:36:53;19.70;;;11.83;;
24277;SDS011;12394;42.692;23.314;2023-05-07T01:39:22;17.60;;;11.47;;
24277;SDS011;12394;42.692;23.314;2023-05-07T01:41:49;15.50;;;10.80;;
24277;SDS011;12394;42.692;23.314;2023-05-07T01:44:15;16.90;;;11.17;;
24277;SDS011;12394;42.692;23.314;2023-05-07T01:46:42;14.67;;;10.90;;
24277;SDS011;12394;42.692;23.314;2023-05-07T01:49:08;21.50;;;10.17;;
24277;SDS011;12394;42.692;23.314;2023-05-07T01:51:34;12.47;;;10.20;;
24277;SDS011;12394;42.692;23.314;2023-05-07T01:54:00;11.83;;;9.37;;
24277;SDS011;12394;42.692;23.314;2023-05-07T01:56:26;11.17;;;8.40;;
24277;SDS011;12394;42.692;23.314;2023-05-07T01:58:51;10.33;;;8.60;;
24277;SDS011;12394;42.692;23.314;2023-05-07T02:01:16;13.00;;;8.60;;
24277;SDS011;12394;42.692;23.314;2023-05-07T02:03:42;10.77;;;7.70;;
24277;SDS011;12394;42.692;23.314;2023-05-07T02:06:08;9.97;;;7.97;;
24277;SDS011;12394;42.692;23.314;2023-05-07T02:08:33;10.80;;;7.97;;
24277;SDS011;12394;42.692;23.314;2023-05-07T02:10:59;10.33;;;7.80;;
24277;SDS011;12394;42.692;23.314;2023-05-07T02:13:25;9.00;;;7.80;;
24277;SDS011;12394;42.692;23.314;2023-05-07T02:15:51;10.70;;;7.83;;
24277;SDS011;12394;42.692;23.314;2023-05-07T02:18:17;9.93;;;6.90;;
24277;SDS011;12394;42.692;23.314;2023-05-07T02:20:42;10.87;;;8.00;;
24277;SDS011;12394;42.692;23.314;2023-05-07T02:23:08;10.50;;;7.97;;
24277;SDS011;12394;42.692;23.314;2023-05-07T02:25:33;9.00;;;7.53;;
24277;SDS011;12394;42.692;23.314;2023-05-07T02:27:59;12.47;;;7.97;;
24277;SDS011;12394;42.692;23.314;2023-05-07T02:30:24;11.23;;;7.43;;
24277;SDS011;12394;42.692;23.314;2023-05-07T02:32:50;10.40;;;8.20;;
24277;SDS011;12394;42.692;23.314;2023-05-07T02:35:16;11.57;;;8.53;;
24277;SDS011;12394;42.692;23.314;2023-05-07T02:37:41;12.57;;;8.07;;
24277;SDS011;12394;42.692;23.314;2023-05-07T02:40:07;11.50;;;7.60;;
24277;SDS011;12394;42.692;23.314;2023-05-07T02:42:33;11.50;;;7.83;;
24277;SDS011;12394;42.692;23.314;2023-05-07T02:44:58;10.70;;;8.20;;
24277;SDS011;12394;42.692;23.314;2023-05-07T02:47:24;14.90;;;8.00;;
24277;SDS011;12394;42.692;23.314;2023-05-07T02:49:52;10.23;;;8.20;;
24277;SDS011;12394;42.692;23.314;2023-05-07T02:52:18;9.13;;;8.23;;
24277;SDS011;12394;42.692;23.314;2023-05-07T02:54:43;15.00;;;9.33;;
24277;SDS011;12394;42.692;23.314;2023-05-07T02:57:08;10.13;;;9.10;;
24277;SDS011;12394;42.692;23.314;2023-05-07T02:59:34;14.97;;;9.03;;
24277;SDS011;12394;42.692;23.314;2023-05-07T03:01:59;14.27;;;10.77;;
24277;SDS011;12394;42.692;23.314;2023-05-07T03:04:25;21.37;;;11.03;;
24277;SDS011;12394;42.692;23.314;2023-05-07T03:06:50;13.33;;;9.57;;
24277;SDS011;12394;42.692;23.314;2023-05-07T03:09:16;14.47;;;9.87;;
24277;SDS011;12394;42.692;23.314;2023-05-07T03:11:41;12.57;;;10.30;;
24277;SDS011;12394;42.692;23.314;2023-05-07T03:14:07;18.23;;;11.40;;
24277;SDS011;12394;42.692;23.314;2023-05-07T03:16:32;16.10;;;10.07;;
24277;SDS011;12394;42.692;23.314;2023-05-07T03:18:58;12.53;;;10.77;;
24277;SDS011;12394;42.692;23.314;2023-05-07T03:21:23;17.30;;;10.73;;
24277;SDS011;12394;42.692;23.314;2023-05-07T03:23:48;21.20;;;11.27;;
24277;SDS011;12394;42.692;23.314;2023-05-07T03:26:14;19.73;;;10.70;;
24277;SDS011;12394;42.692;23.314;2023-05-07T03:28:39;18.20;;;12.30;;
24277;SDS011;12394;42.692;23.314;2023-05-07T03:31:05;18.33;;;11.37;;
24277;SDS011;12394;42.692;23.314;2023-05-07T03:33:32;17.33;;;12.10;;
24277;SDS011;12394;42.692;23.314;2023-05-07T03:35:58;15.80;;;11.17;;
24277;SDS011;12394;42.692;23.314;2023-05-07T03:38:24;13.60;;;10.87;;
24277;SDS011;12394;42.692;23.314;2023-05-07T03:40:49;15.03;;;11.30;;
24277;SDS011;12394;42.692;23.314;2023-05-07T03:43:14;16.87;;;10.90;;
24277;SDS011;12394;42.692;23.314;2023-05-07T03:45:40;15.40;;;11.17;;
24277;SDS011;12394;42.692;23.314;2023-05-07T03:48:05;15.33;;;11.03;;
24277;SDS011;12394;42.692;23.314;2023-05-07T03:50:31;16.43;;;11.33;;
24277;SDS011;12394;42.692;23.314;2023-05-07T03:52:56;16.10;;;11.60;;
24277;SDS011;12394;42.692;23.314;2023-05-07T03:55:21;20.00;;;11.37;;
24277;SDS011;12394;42.692;23.314;2023-05-07T03:57:47;16.50;;;12.73;;
24277;SDS011;12394;42.692;23.314;2023-05-07T04:00:12;16.70;;;11.53;;
24277;SDS011;12394;42.692;23.314;2023-05-07T04:02:38;14.13;;;11.33;;
24277;SDS011;12394;42.692;23.314;2023-05-07T04:05:04;14.53;;;11.60;;
24277;SDS011;12394;42.692;23.314;2023-05-07T04:07:30;14.17;;;10.60;;
24277;SDS011;12394;42.692;23.314;2023-05-07T04:09:55;15.73;;;10.77;;
24277;SDS011;12394;42.692;23.314;2023-05-07T04:12:20;16.17;;;10.97;;
24277;SDS011;12394;42.692;23.314;2023-05-07T04:14:46;16.80;;;10.40;;
24277;SDS011;12394;42.692;23.314;2023-05-07T04:17:11;16.77;;;10.70;;
24277;SDS011;12394;42.692;23.314;2023-05-07T04:19:37;15.60;;;11.40;;
24277;SDS011;12394;42.692;23.314;2023-05-07T04:22:02;14.30;;;10.40;;
24277;SDS011;12394;42.692;23.314;2023-05-07T04:24:28;15.17;;;10.57;;
24277;SDS011;12394;42.692;23.314;2023-05-07T04:26:56;14.27;;;10.27;;
24277;SDS011;12394;42.692;23.314;2023-05-07T04:29:23;13.77;;;11.23;;
24277;SDS011;12394;42.692;23.314;2023-05-07T04:31:48;12.70;;;10.13;;
24277;SDS011;12394;42.692;23.314;2023-05-07T04:34:14;11.90;;;9.73;;
24277;SDS011;12394;42.692;23.314;2023-05-07T04:36:39;13.50;;;10.63;;
24277;SDS011;12394;42.692;23.314;2023-05-07T04:39:05;12.57;;;10.37;;
24277;SDS011;12394;42.692;23.314;2023-05-07T04:41:31;12.27;;;10.03;;
24277;SDS011;12394;42.692;23.314;2023-05-07T04:43:56;13.00;;;10.73;;
24277;SDS011;12394;42.692;23.314;2023-05-07T04:46:23;14.73;;;11.23;;
24277;SDS011;12394;42.692;23.314;2023-05-07T04:48:49;16.17;;;10.07;;
24277;SDS011;12394;42.692;23.314;2023-05-07T04:51:15;18.27;;;11.53;;
24277;SDS011;12394;42.692;23.314;2023-05-07T04:53:40;20.10;;;10.13;;
24277;SDS011;12394;42.692;23.314;2023-05-07T04:56:06;13.47;;;11.40;;
24277;SDS011;12394;42.692;23.314;2023-05-07T04:58:31;14.27;;;10.97;;
24277;SDS011;12394;42.692;23.314;2023-05-07T05:00:57;14.50;;;10.53;;
24277;SDS011;12394;42.692;23.314;2023-05-07T05:03:23;14.40;;;11.70;;
24277;SDS011;12394;42.692;23.314;2023-05-07T05:05:49;17.50;;;11.07;;
24277;SDS011;12394;42.692;23.314;2023-05-07T05:08:16;13.90;;;10.77;;
24277;SDS011;12394;42.692;23.314;2023-05-07T05:10:42;15.40;;;11.40;;
24277;SDS011;12394;42.692;23.314;2023-05-07T05:13:08;20.00;;;11.60;;
24277;SDS011;12394;42.692;23.314;2023-05-07T05:15:34;16.07;;;11.80;;
24277;SDS011;12394;42.692;23.314;2023-05-07T05:17:59;13.80;;;11.60;;
24277;SDS011;12394;42.692;23.314;2023-05-07T05:20:25;18.07;;;12.50;;
24277;SDS011;12394;42.692;23.314;2023-05-07T05:22:50;15.33;;;11.43;;
24277;SDS011;12394;42.692;23.314;2023-05-07T05:25:16;19.53;;;12.90;;
24277;SDS011;12394;42.692;23.314;2023-05-07T05:27:41;17.87;;;11.63;;
24277;SDS011;12394;42.692;23.314;2023-05-07T05:30:07;17.77;;;11.80;;
24277;SDS011;12394;42.692;23.314;2023-05-07T05:32:32;14.17;;;11.50;;
24277;SDS011;12394;42.692;23.314;2023-05-07T05:34:58;16.60;;;12.53;;
24277;SDS011;12394;42.692;23.314;2023-05-07T05:37:23;15.57;;;11.83;;
24277;SDS011;12394;42.692;23.314;2023-05-07T05:39:49;17.63;;;11.73;;
24277;SDS011;12394;42.692;23.314;2023-05-07T05:42:15;17.57;;;12.23;;
24277;SDS011;12394;42.692;23.314;2023-05-07T05:44:40;18.90;;;13.13;;
24277;SDS011;12394;42.692;23.314;2023-05-07T05:47:06;18.23;;;12.40;;
24277;SDS011;12394;42.692;23.314;2023-05-07T05:49:32;16.37;;;12.20;;
24277;SDS011;12394;42.692;23.314;2023-05-07T05:51:58;20.60;;;11.87;;
24277;SDS011;12394;42.692;23.314;2023-05-07T05:54:25;19.50;;;13.20;;
24277;SDS011;12394;42.692;23.314;2023-05-07T05:56:54;20.93;;;11.87;;
24277;SDS011;12394;42.692;23.314;2023-05-07T05:59:20;20.03;;;12.03;;
24277;SDS011;12394;42.692;23.314;2023-05-07T06:01:45;16.40;;;12.03;;
24277;SDS011;12394;42.692;23.314;2023-05-07T06:04:11;13.40;;;11.30;;
24277;SDS011;12394;42.692;23.314;2023-05-07T06:06:36;17.80;;;12.17;;
24277;SDS011;12394;42.692;23.314;2023-05-07T06:09:02;13.63;;;11.97;;
24277;SDS011;12394;42.692;23.314;2023-05-07T06:11:27;19.40;;;12.10;;
24277;SDS011;12394;42.692;23.314;2023-05-07T06:13:53;15.60;;;12.00;;
24277;SDS011;12394;42.692;23.314;2023-05-07T06:16:18;14.63;;;12.83;;
24277;SDS011;12394;42.692;23.314;2023-05-07T06:18:43;14.90;;;11.70;;
24277;SDS011;12394;42.692;23.314;2023-05-07T06:21:11;15.20;;;11.20;;
24277;SDS011;12394;42.692;23.314;2023-05-07T06:23:36;18.83;;;11.20;;
24277;SDS011;12394;42.692;23.314;2023-05-07T06:26:02;15.27;;;11.90;;
24277;SDS011;12394;42.692;23.314;2023-05-07T06:28:27;17.17;;;12.03;;
24277;SDS011;12394;42.692;23.314;2023-05-07T06:30:53;19.87;;;12.80;;
24277;SDS011;12394;42.692;23.314;2023-05-07T06:33:18;16.27;;;12.70;;
24277;SDS011;12394;42.692;23.314;2023-05-07T06:35:44;20.73;;;12.30;;
24277;SDS011;12394;42.692;23.314;2023-05-07T06:38:10;14.23;;;11.90;;
24277;SDS011;12394;42.692;23.314;2023-05-07T06:40:37;13.27;;;11.23;;
24277;SDS011;12394;42.692;23.314;2023-05-07T06:43:02;14.97;;;11.57;;
24277;SDS011;12394;42.692;23.314;2023-05-07T06:45:28;14.73;;;11.43;;
24277;SDS011;12394;42.692;23.314;2023-05-07T06:47:53;18.23;;;11.20;;
24277;SDS011;12394;42.692;23.314;2023-05-07T06:50:18;19.90;;;11.30;;
24277;SDS011;12394;42.692;23.314;2023-05-07T06:52:44;12.20;;;10.70;;
24277;SDS011;12394;42.692;23.314;2023-05-07T06:55:09;12.10;;;10.00;;
24277;SDS011;12394;42.692;23.314;2023-05-07T06:57:36;12.93;;;10.27;;
24277;SDS011;12394;42.692;23.314;2023-05-07T07:00:01;12.27;;;9.90;;
24277;SDS011;12394;42.692;23.314;2023-05-07T07:02:27;14.67;;;10.17;;
24277;SDS011;12394;42.692;23.314;2023-05-07T07:04:52;12.07;;;9.40;;
24277;SDS011;12394;42.692;23.314;2023-05-07T07:07:18;14.03;;;9.53;;
24277;SDS011;12394;42.692;23.314;2023-05-07T07:09:43;10.63;;;9.47;;
24277;SDS011;12394;42.692;23.314;2023-05-07T07:12:08;17.23;;;11.43;;
24277;SDS011;12394;42.692;23.314;2023-05-07T07:14:34;13.17;;;10.40;;
24277;SDS011;12394;42.692;23.314;2023-05-07T07:17:00;12.90;;;10.37;;
24277;SDS011;12394;42.692;23.314;2023-05-07T07:19:25;17.47;;;10.80;;
24277;SDS011;12394;42.692;23.314;2023-05-07T07:21:51;14.83;;;10.53;;
24277;SDS011;12394;42.692;23.314;2023-05-07T07:24:16;17.27;;;10.57;;
24277;SDS011;12394;42.692;23.314;2023-05-07T07:26:45;12.10;;;8.93;;
24277;SDS011;12394;42.692;23.314;2023-05-07T07:29:11;13.27;;;10.07;;
24277;SDS011;12394;42.692;23.314;2023-05-07T07:31:36;14.77;;;10.27;;
24277;SDS011;12394;42.692;23.314;2023-05-07T07:34:02;13.87;;;10.03;;
24277;SDS011;12394;42.692;23.314;2023-05-07T07:36:27;14.97;;;10.33;;
24277;SDS011;12394;42.692;23.314;2023-05-07T07:38:53;14.33;;;8.47;;
24277;SDS011;12394;42.692;23.314;2023-05-07T07:41:18;15.73;;;8.17;;
24277;SDS011;12394;42.692;23.314;2023-05-07T07:43:44;13.80;;;8.03;;
24277;SDS011;12394;42.692;23.314;2023-05-07T07:46:11;12.80;;;8.77;;
24277;SDS011;12394;42.692;23.314;2023-05-07T07:48:37;11.97;;;8.73;;
24277;SDS011;12394;42.692;23.314;2023-05-07T07:51:02;12.23;;;9.13;;
24277;SDS011;12394;42.692;23.314;2023-05-07T07:53:28;15.90;;;9.53;;
24277;SDS011;12394;42.692;23.314;2023-05-07T07:55:53;12.47;;;9.07;;
24277;SDS011;12394;42.692;23.314;2023-05-07T07:58:18;15.40;;;8.80;;
24277;SDS011;12394;42.692;23.314;2023-05-07T08:00:44;13.27;;;8.97;;
24277;SDS011;12394;42.692;23.314;2023-05-07T08:03:10;9.07;;;7.63;;
24277;SDS011;12394;42.692;23.314;2023-05-07T08:05:35;11.57;;;8.17;;
24277;SDS011;12394;42.692;23.314;2023-05-07T08:08:01;12.90;;;9.13;;
24277;SDS011;12394;42.692;23.314;2023-05-07T08:10:26;10.87;;;8.77;;
24277;SDS011;12394;42.692;23.314;2023-05-07T08:12:52;12.60;;;8.60;;
24277;SDS011;12394;42.692;23.314;2023-05-07T08:15:17;14.40;;;8.57;;
24277;SDS011;12394;42.692;23.314;2023-05-07T08:17:43;12.07;;;7.80;;
24277;SDS011;12394;42.692;23.314;2023-05-07T08:20:08;11.37;;;8.07;;
24277;SDS011;12394;42.692;23.314;2023-05-07T08:22:35;9.83;;;7.67;;
24277;SDS011;12394;42.692;23.314;2023-05-07T08:25:01;10.97;;;8.00;;
24277;SDS011;12394;42.692;23.314;2023-05-07T08:27:26;11.63;;;7.57;;
24277;SDS011;12394;42.692;23.314;2023-05-07T08:29:52;14.33;;;7.00;;
24277;SDS011;12394;42.692;23.314;2023-05-07T08:32:17;15.03;;;7.27;;
24277;SDS011;12394;42.692;23.314;2023-05-07T08:34:43;16.53;;;8.97;;
24277;SDS011;12394;42.692;23.314;2023-05-07T08:37:28;11.20;;;6.90;;
24277;SDS011;12394;42.692;23.314;2023-05-07T08:39:53;9.13;;;6.57;;
24277;SDS011;12394;42.692;23.314;2023-05-07T08:42:19;8.60;;;7.47;;
24277;SDS011;12394;42.692;23.314;2023-05-07T08:44:48;10.43;;;6.77;;
24277;SDS011;12394;42.692;23.314;2023-05-07T08:47:17;10.97;;;6.20;;
24277;SDS011;12394;42.692;23.314;2023-05-07T08:49:44;7.10;;;5.07;;
24277;SDS011;12394;42.692;23.314;2023-05-07T08:52:11;7.80;;;4.67;;
24277;SDS011;12394;42.692;23.314;2023-05-07T08:54:37;6.10;;;3.80;;
24277;SDS011;12394;42.692;23.314;2023-05-07T08:57:03;10.98;;;4.10;;
24277;SDS011;12394;42.692;23.314;2023-05-07T08:59:29;9.38;;;5.32;;
24277;SDS011;12394;42.692;23.314;2023-05-07T09:01:55;15.48;;;6.93;;
24277;SDS011;12394;42.692;23.314;2023-05-07T09:04:21;8.52;;;5.47;;
24277;SDS011;12394;42.692;23.314;2023-05-07T09:06:47;8.25;;;5.47;;
24277;SDS011;12394;42.692;23.314;2023-05-07T09:09:16;10.55;;;5.70;;
24277;SDS011;12394;42.692;23.314;2023-05-07T09:11:43;8.18;;;5.47;;
24277;SDS011;12394;42.692;23.314;2023-05-07T09:14:08;5.88;;;4.93;;
24277;SDS011;12394;42.692;23.314;2023-05-07T09:16:34;9.43;;;4.93;;
24277;SDS011;12394;42.692;23.314;2023-05-07T09:18:59;8.27;;;5.65;;
24277;SDS011;12394;42.692;23.314;2023-05-07T09:21:26;7.88;;;5.70;;
24277;SDS011;12394;42.692;23.314;2023-05-07T09:23:52;6.75;;;4.93;;
24277;SDS011;12394;42.692;23.314;2023-05-07T09:26:20;7.47;;;5.10;;
24277;SDS011;12394;42.692;23.314;2023-05-07T09:28:47;6.95;;;4.80;;
24277;SDS011;12394;42.692;23.314;2023-05-07T09:31:12;8.05;;;5.10;;
24277;SDS011;12394;42.692;23.314;2023-05-07T09:33:38;6.82;;;4.78;;
24277;SDS011;12394;42.692;23.314;2023-05-07T09:36:05;9.32;;;5.32;;
24277;SDS011;12394;42.692;23.314;2023-05-07T09:38:32;8.15;;;5.40;;
24277;SDS011;12394;42.692;23.314;2023-05-07T09:41:06;5.18;;;4.68;;
24277;SDS011;12394;42.692;23.314;2023-05-07T09:43:32;6.35;;;4.65;;
24277;SDS011;12394;42.692;23.314;2023-05-07T09:46:00;9.27;;;5.78;;
24277;SDS011;12394;42.692;23.314;2023-05-07T09:48:28;5.80;;;4.63;;
24277;SDS011;12394;42.692;23.314;2023-05-07T09:50:55;11.68;;;4.22;;
24277;SDS011;12394;42.692;23.314;2023-05-07T09:53:25;4.93;;;4.18;;
24277;SDS011;12394;42.692;23.314;2023-05-07T09:55:51;5.00;;;4.43;;
24277;SDS011;12394;42.692;23.314;2023-05-07T09:58:18;6.15;;;4.53;;
24277;SDS011;12394;42.692;23.314;2023-05-07T10:00:44;4.78;;;4.13;;
24277;SDS011;12394;42.692;23.314;2023-05-07T10:03:10;4.85;;;4.13;;
24277;SDS011;12394;42.692;23.314;2023-05-07T10:05:37;7.22;;;4.78;;
24277;SDS011;12394;42.692;23.314;2023-05-07T10:08:04;4.82;;;3.83;;
24277;SDS011;12394;42.692;23.314;2023-05-07T10:10:32;6.53;;;3.92;;
24277;SDS011;12394;42.692;23.314;2023-05-07T10:12:58;5.65;;;4.13;;
24277;SDS011;12394;42.692;23.314;2023-05-07T10:15:24;9.70;;;4.18;;
24277;SDS011;12394;42.692;23.314;2023-05-07T10:17:50;7.22;;;4.10;;
24277;SDS011;12394;42.692;23.314;2023-05-07T10:20:18;4.22;;;3.47;;
24277;SDS011;12394;42.692;23.314;2023-05-07T10:22:44;4.05;;;3.65;;
24277;SDS011;12394;42.692;23.314;2023-05-07T10:25:25;3.72;;;3.30;;
24277;SDS011;12394;42.692;23.314;2023-05-07T10:27:53;12.90;;;3.53;;
24277;SDS011;12394;42.692;23.314;2023-05-07T10:33:08;6.03;;;3.70;;
24277;SDS011;12394;42.692;23.314;2023-05-07T10:35:43;4.32;;;3.60;;
24277;SDS011;12394;42.692;23.314;2023-05-07T10:38:10;7.43;;;3.50;;
24277;SDS011;12394;42.692;23.314;2023-05-07T10:40:36;8.40;;;3.67;;
24277;SDS011;12394;42.692;23.314;2023-05-07T10:43:02;3.97;;;3.30;;
24277;SDS011;12394;42.692;23.314;2023-05-07T10:45:32;6.07;;;3.63;;
24277;SDS011;12394;42.692;23.314;2023-05-07T10:48:13;7.53;;;3.40;;
24277;SDS011;12394;42.692;23.314;2023-05-07T10:50:40;3.70;;;3.40;;
24277;SDS011;12394;42.692;23.314;2023-05-07T10:55:46;8.13;;;3.47;;
24277;SDS011;12394;42.692;23.314;2023-05-07T11:00:58;6.90;;;4.03;;
24277;SDS011;12394;42.692;23.314;2023-05-07T11:03:27;6.47;;;4.20;;
24277;SDS011;12394;42.692;23.314;2023-05-07T11:11:49;6.50;;;4.10;;
24277;SDS011;12394;42.692;23.314;2023-05-07T11:17:06;8.93;;;4.10;;
24277;SDS011;12394;42.692;23.314;2023-05-07T11:19:51;6.07;;;4.00;;
24277;SDS011;12394;42.692;23.314;2023-05-07T11:25:05;4.87;;;3.73;;
24277;SDS011;12394;42.692;23.314;2023-05-07T11:27:31;5.23;;;3.77;;
24277;SDS011;12394;42.692;23.314;2023-05-07T11:29:58;4.33;;;3.93;;
24277;SDS011;12394;42.692;23.314;2023-05-07T11:32:24;4.33;;;3.17;;
24277;SDS011;12394;42.692;23.314;2023-05-07T11:34:52;5.00;;;4.20;;
24277;SDS011;12394;42.692;23.314;2023-05-07T11:37:18;11.50;;;4.83;;
24277;SDS011;12394;42.692;23.314;2023-05-07T11:39:45;6.53;;;3.53;;
24277;SDS011;12394;42.692;23.314;2023-05-07T11:42:28;6.90;;;3.93;;
24277;SDS011;12394;42.692;23.314;2023-05-07T11:44:55;5.57;;;3.67;;
24277;SDS011;12394;42.692;23.314;2023-05-07T11:47:21;3.83;;;3.37;;
24277;SDS011;12394;42.692;23.314;2023-05-07T11:49:50;3.67;;;2.70;;
24277;SDS011;12394;42.692;23.314;2023-05-07T11:52:17;7.00;;;3.53;;
24277;SDS011;12394;42.692;23.314;2023-05-07T11:54:50;5.70;;;3.47;;
24277;SDS011;12394;42.692;23.314;2023-05-07T11:57:23;5.10;;;3.57;;
24277;SDS011;12394;42.692;23.314;2023-05-07T11:59:53;7.90;;;3.50;;
24277;SDS011;12394;42.692;23.314;2023-05-07T12:02:19;4.87;;;3.17;;
24277;SDS011;12394;42.692;23.314;2023-05-07T12:04:44;4.77;;;3.30;;
24277;SDS011;12394;42.692;23.314;2023-05-07T12:07:16;4.73;;;3.90;;
24277;SDS011;12394;42.692;23.314;2023-05-07T12:09:43;4.23;;;3.50;;
24277;SDS011;12394;42.692;23.314;2023-05-07T12:12:09;3.90;;;3.60;;
24277;SDS011;12394;42.692;23.314;2023-05-07T12:14:39;4.20;;;3.70;;
24277;SDS011;12394;42.692;23.314;2023-05-07T12:17:05;5.27;;;3.30;;
24277;SDS011;12394;42.692;23.314;2023-05-07T12:19:32;7.27;;;2.97;;
24277;SDS011;12394;42.692;23.314;2023-05-07T12:21:58;7.17;;;2.93;;
24277;SDS011;12394;42.692;23.314;2023-05-07T12:24:24;3.67;;;2.57;;
24277;SDS011;12394;42.692;23.314;2023-05-07T12:26:50;3.40;;;2.83;;
24277;SDS011;12394;42.692;23.314;2023-05-07T12:29:15;3.97;;;2.50;;
24277;SDS011;12394;42.692;23.314;2023-05-07T12:31:41;3.67;;;2.73;;
24277;SDS011;12394;42.692;23.314;2023-05-07T12:34:07;3.53;;;2.80;;
24277;SDS011;12394;42.692;23.314;2023-05-07T12:36:36;4.73;;;2.60;;
24277;SDS011;12394;42.692;23.314;2023-05-07T12:39:08;4.77;;;2.90;;
24277;SDS011;12394;42.692;23.314;2023-05-07T12:44:23;3.37;;;3.03;;
24277;SDS011;12394;42.692;23.314;2023-05-07T12:46:50;3.33;;;2.70;;
24277;SDS011;12394;42.692;23.314;2023-05-07T12:49:16;3.23;;;2.93;;
24277;SDS011;12394;42.692;23.314;2023-05-07T12:51:43;4.50;;;3.47;;
24277;SDS011;12394;42.692;23.314;2023-05-07T12:54:09;7.77;;;2.97;;
24277;SDS011;12394;42.692;23.314;2023-05-07T12:56:37;6.53;;;3.03;;
24277;SDS011;12394;42.692;23.314;2023-05-07T12:59:02;4.60;;;2.97;;
24277;SDS011;12394;42.692;23.314;2023-05-07T13:01:29;8.60;;;2.90;;
24277;SDS011;12394;42.692;23.314;2023-05-07T13:03:55;4.73;;;3.03;;
24277;SDS011;12394;42.692;23.314;2023-05-07T13:06:25;4.47;;;3.13;;
24277;SDS011;12394;42.692;23.314;2023-05-07T13:08:51;5.50;;;3.10;;
24277;SDS011;12394;42.692;23.314;2023-05-07T13:11:16;6.87;;;3.33;;
24277;SDS011;12394;42.692;23.314;2023-05-07T13:13:42;3.60;;;3.07;;
24277;SDS011;12394;42.692;23.314;2023-05-07T13:16:08;11.07;;;3.60;;
24277;SDS011;12394;42.692;23.314;2023-05-07T13:18:34;9.30;;;4.07;;
24277;SDS011;12394;42.692;23.314;2023-05-07T13:21:00;4.70;;;2.80;;
24277;SDS011;12394;42.692;23.314;2023-05-07T13:23:26;4.30;;;3.50;;
24277;SDS011;12394;42.692;23.314;2023-05-07T13:25:52;3.47;;;3.17;;
24277;SDS011;12394;42.692;23.314;2023-05-07T13:28:19;3.10;;;2.80;;
24277;SDS011;12394;42.692;23.314;2023-05-07T13:30:45;5.40;;;2.63;;
24277;SDS011;12394;42.692;23.314;2023-05-07T13:33:11;6.43;;;3.47;;
24277;SDS011;12394;42.692;23.314;2023-05-07T13:35:36;3.43;;;2.87;;
24277;SDS011;12394;42.692;23.314;2023-05-07T13:38:02;4.07;;;3.47;;
24277;SDS011;12394;42.692;23.314;2023-05-07T13:40:28;4.67;;;2.87;;
24277;SDS011;12394;42.692;23.314;2023-05-07T13:42:53;4.37;;;3.07;;
24277;SDS011;12394;42.692;23.314;2023-05-07T13:45:19;3.70;;;2.63;;
24277;SDS011;12394;42.692;23.314;2023-05-07T13:47:45;3.53;;;2.90;;
24277;SDS011;12394;42.692;23.314;2023-05-07T13:50:11;3.20;;;2.90;;
24277;SDS011;12394;42.692;23.314;2023-05-07T13:52:39;6.70;;;3.23;;
24277;SDS011;12394;42.692;23.314;2023-05-07T13:55:06;5.37;;;3.13;;
24277;SDS011;12394;42.692;23.314;2023-05-07T13:57:32;7.83;;;2.87;;
24277;SDS011;12394;42.692;23.314;2023-05-07T13:59:57;4.03;;;3.10;;
24277;SDS011;12394;42.692;23.314;2023-05-07T14:02:23;4.87;;;2.90;;
24277;SDS011;12394;42.692;23.314;2023-05-07T14:04:48;3.97;;;3.20;;
24277;SDS011;12394;42.692;23.314;2023-05-07T14:07:13;5.97;;;3.13;;
24277;SDS011;12394;42.692;23.314;2023-05-07T14:09:39;5.27;;;3.10;;
24277;SDS011;12394;42.692;23.314;2023-05-07T14:12:04;3.43;;;3.03;;
24277;SDS011;12394;42.692;23.314;2023-05-07T14:14:30;9.23;;;3.37;;
24277;SDS011;12394;42.692;23.314;2023-05-07T14:16:55;4.20;;;3.00;;
24277;SDS011;12394;42.692;23.314;2023-05-07T14:19:21;2.93;;;2.67;;
24277;SDS011;12394;42.692;23.314;2023-05-07T14:21:47;6.03;;;3.43;;
24277;SDS011;12394;42.692;23.314;2023-05-07T14:24:13;5.27;;;3.10;;
24277;SDS011;12394;42.692;23.314;2023-05-07T14:26:38;7.13;;;3.07;;
24277;SDS011;12394;42.692;23.314;2023-05-07T14:29:04;5.30;;;3.13;;
24277;SDS011;12394;42.692;23.314;2023-05-07T14:31:29;7.60;;;3.63;;
24277;SDS011;12394;42.692;23.314;2023-05-07T14:33:55;8.23;;;3.30;;
24277;SDS011;12394;42.692;23.314;2023-05-07T14:36:22;5.40;;;2.90;;
24277;SDS011;12394;42.692;23.314;2023-05-07T14:38:51;12.63;;;4.27;;